sensor_id;sensor_type;location;lat;lon;timestamp;P1;durP1;ratioP1;P2;durP2;ratioP2
1206;SDS011;593;53.184;8.216;2022-10-31T00:00:07;18.77;;;14.13;;
1206;SDS011;593;53.184;8.216;2022-10-31T00:02:39;18.07;;;14.10;;
1206;SDS011;593;53.184;8.216;2022-10-31T00:05:04;16.10;;;14.50;;
1206;SDS011;593;53.184;8.216;2022-10-31T00:07:30;19.30;;;14.30;;
1206;SDS011;593;53.184;8.216;2022-10-31T00:09:55;14.37;;;12.87;;
1206;SDS011;593;53.184;8.216;2022-10-31T00:12:20;15.87;;;12.87;;
1206;SDS011;593;53.184;8.216;2022-10-31T00:14:45;16.83;;;13.20;;
1206;SDS011;593;53.184;8.216;2022-10-31T00:17:11;16.60;;;13.47;;
1206;SDS011;593;53.184;8.216;2022-10-31T00:19:38;20.47;;;13.53;;
1206;SDS011;593;53.184;8.216;2022-10-31T00:22:03;17.77;;;13.70;;
1206;SDS011;593;53.184;8.216;2022-10-31T00:24:30;16.43;;;13.93;;
1206;SDS011;593;53.184;8.216;2022-10-31T00:27:01;15.60;;;13.77;;
1206;SDS011;593;53.184;8.216;2022-10-31T00:29:26;15.30;;;13.13;;
1206;SDS011;593;53.184;8.216;2022-10-31T00:31:52;14.03;;;12.53;;
1206;SDS011;593;53.184;8.216;2022-10-31T00:34:17;13.93;;;12.43;;
1206;SDS011;593;53.184;8.216;2022-10-31T00:36:43;11.60;;;10.43;;
1206;SDS011;593;53.184;8.216;2022-10-31T00:39:08;12.13;;;11.03;;
1206;SDS011;593;53.184;8.216;2022-10-31T00:41:34;13.80;;;12.40;;
1206;SDS011;593;53.184;8.216;2022-10-31T00:43:59;13.50;;;12.10;;
1206;SDS011;593;53.184;8.216;2022-10-31T00:46:25;16.03;;;12.57;;
1206;SDS011;593;53.184;8.216;2022-10-31T00:48:59;13.77;;;12.13;;
1206;SDS011;593;53.184;8.216;2022-10-31T00:51:24;16.80;;;12.60;;
1206;SDS011;593;53.184;8.216;2022-10-31T00:53:52;16.70;;;12.73;;
1206;SDS011;593;53.184;8.216;2022-10-31T00:56:17;17.80;;;11.60;;
1206;SDS011;593;53.184;8.216;2022-10-31T00:58:43;16.30;;;12.47;;
1206;SDS011;593;53.184;8.216;2022-10-31T01:01:08;13.53;;;12.20;;
1206;SDS011;593;53.184;8.216;2022-10-31T01:03:36;14.10;;;12.03;;
1206;SDS011;593;53.184;8.216;2022-10-31T01:06:06;16.63;;;11.60;;
1206;SDS011;593;53.184;8.216;2022-10-31T01:08:34;13.33;;;10.40;;
1206;SDS011;593;53.184;8.216;2022-10-31T01:13:28;10.53;;;9.40;;
1206;SDS011;593;53.184;8.216;2022-10-31T01:15:55;11.30;;;9.47;;
1206;SDS011;593;53.184;8.216;2022-10-31T01:18:22;10.17;;;8.83;;
1206;SDS011;593;53.184;8.216;2022-10-31T01:20:58;10.93;;;8.90;;
1206;SDS011;593;53.184;8.216;2022-10-31T01:23:24;11.00;;;9.20;;
1206;SDS011;593;53.184;8.216;2022-10-31T01:25:58;11.37;;;9.73;;
1206;SDS011;593;53.184;8.216;2022-10-31T01:28:26;11.70;;;7.60;;
1206;SDS011;593;53.184;8.216;2022-10-31T01:30:52;13.60;;;8.87;;
1206;SDS011;593;53.184;8.216;2022-10-31T01:33:17;10.27;;;9.20;;
1206;SDS011;593;53.184;8.216;2022-10-31T01:35:43;11.93;;;9.67;;
1206;SDS011;593;53.184;8.216;2022-10-31T01:38:08;15.47;;;10.37;;
1206;SDS011;593;53.184;8.216;2022-10-31T01:40:33;11.30;;;10.10;;
1206;SDS011;593;53.184;8.216;2022-10-31T01:42:59;12.13;;;9.97;;
1206;SDS011;593;53.184;8.216;2022-10-31T01:45:24;12.43;;;10.33;;
1206;SDS011;593;53.184;8.216;2022-10-31T01:47:49;11.53;;;10.23;;
1206;SDS011;593;53.184;8.216;2022-10-31T01:50:20;15.90;;;10.87;;
1206;SDS011;593;53.184;8.216;2022-10-31T01:52:55;15.67;;;9.13;;
1206;SDS011;593;53.184;8.216;2022-10-31T01:55:26;12.80;;;9.80;;
1206;SDS011;593;53.184;8.216;2022-10-31T01:57:56;9.77;;;8.77;;
1206;SDS011;593;53.184;8.216;2022-10-31T02:00:24;10.50;;;9.43;;
1206;SDS011;593;53.184;8.216;2022-10-31T02:02:50;10.70;;;9.27;;
1206;SDS011;593;53.184;8.216;2022-10-31T02:05:18;9.37;;;8.57;;
1206;SDS011;593;53.184;8.216;2022-10-31T02:07:54;8.30;;;7.60;;
1206;SDS011;593;53.184;8.216;2022-10-31T02:10:22;11.70;;;9.03;;
1206;SDS011;593;53.184;8.216;2022-10-31T02:12:50;13.37;;;10.67;;
1206;SDS011;593;53.184;8.216;2022-10-31T02:15:17;9.57;;;8.77;;
1206;SDS011;593;53.184;8.216;2022-10-31T02:17:44;9.60;;;8.60;;
1206;SDS011;593;53.184;8.216;2022-10-31T02:25:26;9.90;;;9.00;;
1206;SDS011;593;53.184;8.216;2022-10-31T02:33:52;14.57;;;10.63;;
1206;SDS011;593;53.184;8.216;2022-10-31T02:41:37;13.73;;;12.13;;
1206;SDS011;593;53.184;8.216;2022-10-31T02:46:59;15.60;;;11.97;;
1206;SDS011;593;53.184;8.216;2022-10-31T02:51:59;17.00;;;13.10;;
1206;SDS011;593;53.184;8.216;2022-10-31T02:54:25;15.60;;;12.20;;
1206;SDS011;593;53.184;8.216;2022-10-31T02:57:02;14.50;;;12.00;;
1206;SDS011;593;53.184;8.216;2022-10-31T02:59:31;12.17;;;10.47;;
1206;SDS011;593;53.184;8.216;2022-10-31T03:04:41;12.60;;;10.43;;
1206;SDS011;593;53.184;8.216;2022-10-31T03:10:27;11.27;;;9.20;;
1206;SDS011;593;53.184;8.216;2022-10-31T03:16:07;13.27;;;9.93;;
1206;SDS011;593;53.184;8.216;2022-10-31T03:18:43;12.47;;;10.70;;
1206;SDS011;593;53.184;8.216;2022-10-31T03:21:19;13.83;;;11.10;;
1206;SDS011;593;53.184;8.216;2022-10-31T03:23:47;15.70;;;12.10;;
1206;SDS011;593;53.184;8.216;2022-10-31T03:26:15;12.40;;;10.33;;
1206;SDS011;593;53.184;8.216;2022-10-31T03:28:43;20.17;;;13.23;;
1206;SDS011;593;53.184;8.216;2022-10-31T03:31:16;12.80;;;9.40;;
1206;SDS011;593;53.184;8.216;2022-10-31T03:33:43;10.80;;;9.67;;
1206;SDS011;593;53.184;8.216;2022-10-31T03:36:11;10.20;;;8.17;;
1206;SDS011;593;53.184;8.216;2022-10-31T03:38:40;11.53;;;8.73;;
1206;SDS011;593;53.184;8.216;2022-10-31T03:41:09;10.87;;;8.93;;
1206;SDS011;593;53.184;8.216;2022-10-31T03:43:38;9.93;;;8.93;;
1206;SDS011;593;53.184;8.216;2022-10-31T03:46:08;8.50;;;7.70;;
1206;SDS011;593;53.184;8.216;2022-10-31T03:48:43;7.83;;;7.07;;
1206;SDS011;593;53.184;8.216;2022-10-31T03:51:14;8.77;;;7.97;;
1206;SDS011;593;53.184;8.216;2022-10-31T03:56:33;9.53;;;7.80;;
1206;SDS011;593;53.184;8.216;2022-10-31T03:59:10;7.30;;;6.70;;
1206;SDS011;593;53.184;8.216;2022-10-31T04:01:43;7.70;;;6.73;;
1206;SDS011;593;53.184;8.216;2022-10-31T04:04:13;8.37;;;7.33;;
1206;SDS011;593;53.184;8.216;2022-10-31T04:06:39;7.87;;;7.20;;
1206;SDS011;593;53.184;8.216;2022-10-31T04:09:08;8.60;;;7.90;;
1206;SDS011;593;53.184;8.216;2022-10-31T04:11:36;9.07;;;7.33;;
1206;SDS011;593;53.184;8.216;2022-10-31T04:14:05;8.70;;;7.30;;
1206;SDS011;593;53.184;8.216;2022-10-31T04:16:37;10.20;;;8.13;;
1206;SDS011;593;53.184;8.216;2022-10-31T04:19:20;10.50;;;8.90;;
1206;SDS011;593;53.184;8.216;2022-10-31T04:22:03;11.67;;;9.70;;
1206;SDS011;593;53.184;8.216;2022-10-31T04:24:29;12.87;;;9.70;;
1206;SDS011;593;53.184;8.216;2022-10-31T04:26:54;13.10;;;10.47;;
1206;SDS011;593;53.184;8.216;2022-10-31T04:29:20;14.17;;;10.63;;
1206;SDS011;593;53.184;8.216;2022-10-31T04:31:45;19.27;;;12.67;;
1206;SDS011;593;53.184;8.216;2022-10-31T04:34:10;14.27;;;11.07;;
1206;SDS011;593;53.184;8.216;2022-10-31T04:36:35;13.27;;;11.40;;
1206;SDS011;593;53.184;8.216;2022-10-31T04:39:01;15.80;;;13.17;;
1206;SDS011;593;53.184;8.216;2022-10-31T04:41:26;13.07;;;11.67;;
1206;SDS011;593;53.184;8.216;2022-10-31T04:43:51;14.03;;;12.60;;
1206;SDS011;593;53.184;8.216;2022-10-31T04:46:17;13.60;;;11.17;;
1206;SDS011;593;53.184;8.216;2022-10-31T04:48:42;16.77;;;12.30;;
1206;SDS011;593;53.184;8.216;2022-10-31T04:51:07;14.90;;;12.50;;
1206;SDS011;593;53.184;8.216;2022-10-31T04:53:33;12.40;;;11.10;;
1206;SDS011;593;53.184;8.216;2022-10-31T04:55:58;13.03;;;11.73;;
1206;SDS011;593;53.184;8.216;2022-10-31T04:58:27;12.27;;;10.87;;
1206;SDS011;593;53.184;8.216;2022-10-31T05:00:53;13.07;;;11.67;;
1206;SDS011;593;53.184;8.216;2022-10-31T05:03:19;15.50;;;12.40;;
1206;SDS011;593;53.184;8.216;2022-10-31T05:05:47;12.90;;;11.60;;
1206;SDS011;593;53.184;8.216;2022-10-31T05:08:20;14.00;;;12.70;;
1206;SDS011;593;53.184;8.216;2022-10-31T05:10:47;14.53;;;13.03;;
1206;SDS011;593;53.184;8.216;2022-10-31T05:13:12;13.33;;;11.93;;
1206;SDS011;593;53.184;8.216;2022-10-31T05:15:39;13.00;;;11.70;;
1206;SDS011;593;53.184;8.216;2022-10-31T05:18:05;12.27;;;11.17;;
1206;SDS011;593;53.184;8.216;2022-10-31T05:20:30;13.53;;;12.20;;
1206;SDS011;593;53.184;8.216;2022-10-31T05:22:56;15.20;;;12.67;;
1206;SDS011;593;53.184;8.216;2022-10-31T05:25:23;13.20;;;11.90;;
1206;SDS011;593;53.184;8.216;2022-10-31T05:27:52;13.50;;;12.13;;
1206;SDS011;593;53.184;8.216;2022-10-31T05:30:25;13.63;;;12.20;;
1206;SDS011;593;53.184;8.216;2022-10-31T05:32:53;16.33;;;12.73;;
1206;SDS011;593;53.184;8.216;2022-10-31T05:35:26;12.50;;;11.30;;
1206;SDS011;593;53.184;8.216;2022-10-31T05:37:53;13.00;;;11.40;;
1206;SDS011;593;53.184;8.216;2022-10-31T05:40:19;11.97;;;10.67;;
1206;SDS011;593;53.184;8.216;2022-10-31T05:42:45;13.03;;;11.60;;
1206;SDS011;593;53.184;8.216;2022-10-31T05:45:15;12.57;;;11.33;;
1206;SDS011;593;53.184;8.216;2022-10-31T05:47:42;12.97;;;11.70;;
1206;SDS011;593;53.184;8.216;2022-10-31T05:50:14;12.50;;;11.30;;
1206;SDS011;593;53.184;8.216;2022-10-31T05:52:44;13.30;;;11.93;;
1206;SDS011;593;53.184;8.216;2022-10-31T05:55:09;13.13;;;11.93;;
1206;SDS011;593;53.184;8.216;2022-10-31T05:57:34;11.97;;;10.77;;
1206;SDS011;593;53.184;8.216;2022-10-31T06:00:00;11.67;;;10.47;;
1206;SDS011;593;53.184;8.216;2022-10-31T06:02:25;12.23;;;10.23;;
1206;SDS011;593;53.184;8.216;2022-10-31T06:04:51;11.93;;;10.80;;
1206;SDS011;593;53.184;8.216;2022-10-31T06:07:17;12.47;;;11.17;;
1206;SDS011;593;53.184;8.216;2022-10-31T06:09:42;13.30;;;12.10;;
1206;SDS011;593;53.184;8.216;2022-10-31T06:12:11;13.17;;;11.77;;
1206;SDS011;593;53.184;8.216;2022-10-31T06:14:39;13.33;;;12.03;;
1206;SDS011;593;53.184;8.216;2022-10-31T06:17:08;11.60;;;10.57;;
1206;SDS011;593;53.184;8.216;2022-10-31T06:19:36;14.50;;;12.80;;
1206;SDS011;593;53.184;8.216;2022-10-31T06:22:03;12.40;;;11.10;;
1206;SDS011;593;53.184;8.216;2022-10-31T06:24:32;13.23;;;11.93;;
1206;SDS011;593;53.184;8.216;2022-10-31T06:27:00;13.67;;;12.37;;
1206;SDS011;593;53.184;8.216;2022-10-31T06:29:25;12.60;;;11.30;;
1206;SDS011;593;53.184;8.216;2022-10-31T06:31:51;13.37;;;12.17;;
1206;SDS011;593;53.184;8.216;2022-10-31T06:34:16;13.53;;;12.10;;
1206;SDS011;593;53.184;8.216;2022-10-31T06:36:42;13.53;;;12.23;;
1206;SDS011;593;53.184;8.216;2022-10-31T06:39:07;14.17;;;12.70;;
1206;SDS011;593;53.184;8.216;2022-10-31T06:41:32;14.00;;;12.43;;
1206;SDS011;593;53.184;8.216;2022-10-31T06:43:58;11.90;;;10.80;;
1206;SDS011;593;53.184;8.216;2022-10-31T06:46:23;13.90;;;12.60;;
1206;SDS011;593;53.184;8.216;2022-10-31T06:48:50;13.47;;;12.10;;
1206;SDS011;593;53.184;8.216;2022-10-31T06:51:16;13.87;;;12.53;;
1206;SDS011;593;53.184;8.216;2022-10-31T06:53:42;14.07;;;12.30;;
1206;SDS011;593;53.184;8.216;2022-10-31T06:56:08;13.93;;;12.53;;
1206;SDS011;593;53.184;8.216;2022-10-31T06:58:33;14.23;;;12.43;;
1206;SDS011;593;53.184;8.216;2022-10-31T07:00:59;14.40;;;12.90;;
1206;SDS011;593;53.184;8.216;2022-10-31T07:03:25;14.57;;;13.07;;
1206;SDS011;593;53.184;8.216;2022-10-31T07:05:50;14.00;;;12.60;;
1206;SDS011;593;53.184;8.216;2022-10-31T07:08:16;14.67;;;13.13;;
1206;SDS011;593;53.184;8.216;2022-10-31T07:10:42;15.40;;;13.77;;
1206;SDS011;593;53.184;8.216;2022-10-31T07:13:13;15.30;;;13.80;;
1206;SDS011;593;53.184;8.216;2022-10-31T07:15:54;14.07;;;12.63;;
1206;SDS011;593;53.184;8.216;2022-10-31T07:18:33;15.03;;;13.60;;
1206;SDS011;593;53.184;8.216;2022-10-31T07:20:59;12.83;;;11.50;;
1206;SDS011;593;53.184;8.216;2022-10-31T07:23:24;14.03;;;12.60;;
1206;SDS011;593;53.184;8.216;2022-10-31T07:25:54;15.50;;;14.03;;
1206;SDS011;593;53.184;8.216;2022-10-31T07:28:23;15.43;;;13.63;;
1206;SDS011;593;53.184;8.216;2022-10-31T07:30:50;15.10;;;12.73;;
1206;SDS011;593;53.184;8.216;2022-10-31T07:33:16;15.57;;;13.17;;
1206;SDS011;593;53.184;8.216;2022-10-31T07:35:42;17.70;;;13.07;;
1206;SDS011;593;53.184;8.216;2022-10-31T07:41:10;16.63;;;14.80;;
1206;SDS011;593;53.184;8.216;2022-10-31T07:43:36;15.13;;;13.53;;
1206;SDS011;593;53.184;8.216;2022-10-31T07:46:01;15.00;;;13.13;;
1206;SDS011;593;53.184;8.216;2022-10-31T07:48:26;14.10;;;12.57;;
1206;SDS011;593;53.184;8.216;2022-10-31T07:50:52;15.97;;;14.37;;
1206;SDS011;593;53.184;8.216;2022-10-31T07:53:17;18.20;;;14.83;;
1206;SDS011;593;53.184;8.216;2022-10-31T07:55:43;15.67;;;13.27;;
1206;SDS011;593;53.184;8.216;2022-10-31T07:58:09;14.53;;;13.03;;
1206;SDS011;593;53.184;8.216;2022-10-31T08:00:36;15.47;;;13.83;;
1206;SDS011;593;53.184;8.216;2022-10-31T08:03:04;17.23;;;15.40;;
1206;SDS011;593;53.184;8.216;2022-10-31T08:05:31;14.67;;;13.07;;
1206;SDS011;593;53.184;8.216;2022-10-31T08:07:58;14.70;;;13.13;;
1206;SDS011;593;53.184;8.216;2022-10-31T08:10:24;17.63;;;13.53;;
1206;SDS011;593;53.184;8.216;2022-10-31T08:13:03;15.53;;;13.93;;
1206;SDS011;593;53.184;8.216;2022-10-31T08:15:31;16.73;;;14.87;;
1206;SDS011;593;53.184;8.216;2022-10-31T08:17:58;16.53;;;14.20;;
1206;SDS011;593;53.184;8.216;2022-10-31T08:20:24;15.67;;;13.67;;
1206;SDS011;593;53.184;8.216;2022-10-31T08:22:56;17.10;;;15.30;;
1206;SDS011;593;53.184;8.216;2022-10-31T08:25:27;15.43;;;13.80;;
1206;SDS011;593;53.184;8.216;2022-10-31T08:27:55;17.07;;;15.27;;
1206;SDS011;593;53.184;8.216;2022-10-31T08:30:25;16.87;;;15.17;;
1206;SDS011;593;53.184;8.216;2022-10-31T08:35:31;15.97;;;14.50;;
1206;SDS011;593;53.184;8.216;2022-10-31T08:37:59;16.63;;;14.87;;
1206;SDS011;593;53.184;8.216;2022-10-31T08:40:26;15.20;;;13.60;;
1206;SDS011;593;53.184;8.216;2022-10-31T08:42:57;16.83;;;15.03;;
1206;SDS011;593;53.184;8.216;2022-10-31T08:45:27;18.07;;;16.20;;
1206;SDS011;593;53.184;8.216;2022-10-31T08:47:56;17.17;;;15.13;;
1206;SDS011;593;53.184;8.216;2022-10-31T08:50:22;18.30;;;16.40;;
1206;SDS011;593;53.184;8.216;2022-10-31T08:52:52;16.40;;;14.63;;
1206;SDS011;593;53.184;8.216;2022-10-31T08:55:19;17.80;;;14.97;;
1206;SDS011;593;53.184;8.216;2022-10-31T08:57:46;19.80;;;16.10;;
1206;SDS011;593;53.184;8.216;2022-10-31T09:00:12;18.67;;;16.70;;
1206;SDS011;593;53.184;8.216;2022-10-31T09:02:38;24.07;;;19.00;;
1206;SDS011;593;53.184;8.216;2022-10-31T09:05:04;18.87;;;16.20;;
1206;SDS011;593;53.184;8.216;2022-10-31T09:07:31;19.63;;;16.53;;
1206;SDS011;593;53.184;8.216;2022-10-31T09:09:59;19.63;;;16.77;;
1206;SDS011;593;53.184;8.216;2022-10-31T09:12:26;22.50;;;16.10;;
1206;SDS011;593;53.184;8.216;2022-10-31T09:14:52;20.40;;;18.03;;
1206;SDS011;593;53.184;8.216;2022-10-31T09:17:17;22.70;;;17.27;;
1206;SDS011;593;53.184;8.216;2022-10-31T09:19:42;19.43;;;15.10;;
1206;SDS011;593;53.184;8.216;2022-10-31T09:22:08;22.80;;;18.50;;
1206;SDS011;593;53.184;8.216;2022-10-31T09:24:33;19.93;;;16.50;;
1206;SDS011;593;53.184;8.216;2022-10-31T09:26:58;19.47;;;15.97;;
1206;SDS011;593;53.184;8.216;2022-10-31T09:29:24;23.03;;;17.77;;
1206;SDS011;593;53.184;8.216;2022-10-31T09:31:49;19.60;;;17.40;;
1206;SDS011;593;53.184;8.216;2022-10-31T09:34:14;20.80;;;17.40;;
1206;SDS011;593;53.184;8.216;2022-10-31T09:36:40;24.00;;;18.13;;
1206;SDS011;593;53.184;8.216;2022-10-31T09:39:05;22.40;;;18.73;;
1206;SDS011;593;53.184;8.216;2022-10-31T09:47:04;25.20;;;18.27;;
1206;SDS011;593;53.184;8.216;2022-10-31T09:52:40;21.93;;;18.00;;
1206;SDS011;593;53.184;8.216;2022-10-31T09:57:43;19.93;;;17.17;;
1206;SDS011;593;53.184;8.216;2022-10-31T10:00:14;19.03;;;17.00;;
1206;SDS011;593;53.184;8.216;2022-10-31T10:03:02;23.90;;;18.17;;
1206;SDS011;593;53.184;8.216;2022-10-31T10:05:38;19.80;;;16.30;;
1206;SDS011;593;53.184;8.216;2022-10-31T10:18:55;20.50;;;16.80;;
1206;SDS011;593;53.184;8.216;2022-10-31T10:29:41;19.80;;;16.00;;
1206;SDS011;593;53.184;8.216;2022-10-31T10:32:23;21.07;;;16.90;;
1206;SDS011;593;53.184;8.216;2022-10-31T10:35:02;27.13;;;19.00;;
1206;SDS011;593;53.184;8.216;2022-10-31T10:40:39;27.30;;;16.93;;
1206;SDS011;593;53.184;8.216;2022-10-31T10:49:00;22.00;;;15.00;;
1206;SDS011;593;53.184;8.216;2022-10-31T10:51:43;19.00;;;15.47;;
1206;SDS011;593;53.184;8.216;2022-10-31T10:54:56;23.73;;;16.40;;
1206;SDS011;593;53.184;8.216;2022-10-31T10:59:58;15.43;;;12.57;;
1206;SDS011;593;53.184;8.216;2022-10-31T11:02:27;18.37;;;13.80;;
1206;SDS011;593;53.184;8.216;2022-10-31T11:05:01;19.40;;;13.53;;
1206;SDS011;593;53.184;8.216;2022-10-31T11:07:45;17.87;;;12.43;;
1206;SDS011;593;53.184;8.216;2022-10-31T11:10:28;15.97;;;12.53;;
1206;SDS011;593;53.184;8.216;2022-10-31T11:15:37;23.20;;;15.80;;
1206;SDS011;593;53.184;8.216;2022-10-31T11:18:20;19.93;;;14.50;;
1206;SDS011;593;53.184;8.216;2022-10-31T11:20:55;20.60;;;13.67;;
1206;SDS011;593;53.184;8.216;2022-10-31T11:23:24;16.00;;;12.17;;
1206;SDS011;593;53.184;8.216;2022-10-31T11:25:55;17.10;;;12.43;;
1206;SDS011;593;53.184;8.216;2022-10-31T11:28:32;12.10;;;10.03;;
1206;SDS011;593;53.184;8.216;2022-10-31T11:31:11;17.03;;;11.13;;
1206;SDS011;593;53.184;8.216;2022-10-31T11:34:00;13.20;;;11.60;;
1206;SDS011;593;53.184;8.216;2022-10-31T11:36:43;13.67;;;10.27;;
1206;SDS011;593;53.184;8.216;2022-10-31T11:39:16;12.83;;;10.73;;
1206;SDS011;593;53.184;8.216;2022-10-31T11:41:49;14.47;;;9.53;;
1206;SDS011;593;53.184;8.216;2022-10-31T11:44:18;10.63;;;8.63;;
1206;SDS011;593;53.184;8.216;2022-10-31T11:46:52;16.33;;;10.90;;
1206;SDS011;593;53.184;8.216;2022-10-31T11:49:46;17.10;;;10.73;;
1206;SDS011;593;53.184;8.216;2022-10-31T11:52:21;11.20;;;10.03;;
1206;SDS011;593;53.184;8.216;2022-10-31T11:59:57;14.60;;;10.57;;
1206;SDS011;593;53.184;8.216;2022-10-31T12:02:28;12.90;;;10.87;;
1206;SDS011;593;53.184;8.216;2022-10-31T12:04:56;12.20;;;9.93;;
1206;SDS011;593;53.184;8.216;2022-10-31T12:07:43;11.53;;;9.73;;
1206;SDS011;593;53.184;8.216;2022-10-31T12:10:11;12.40;;;9.27;;
1206;SDS011;593;53.184;8.216;2022-10-31T12:27:10;11.50;;;9.33;;
1206;SDS011;593;53.184;8.216;2022-10-31T12:40:03;14.17;;;12.00;;
1206;SDS011;593;53.184;8.216;2022-10-31T12:42:55;13.80;;;12.30;;
1206;SDS011;593;53.184;8.216;2022-10-31T12:53:48;21.53;;;14.17;;
1206;SDS011;593;53.184;8.216;2022-10-31T13:07:18;17.97;;;16.00;;
1206;SDS011;593;53.184;8.216;2022-10-31T13:09:53;19.27;;;15.20;;
1206;SDS011;593;53.184;8.216;2022-10-31T13:12:20;26.23;;;17.87;;
1206;SDS011;593;53.184;8.216;2022-10-31T13:14:54;22.17;;;15.27;;
1206;SDS011;593;53.184;8.216;2022-10-31T13:17:29;23.47;;;18.33;;
1206;SDS011;593;53.184;8.216;2022-10-31T13:23:15;26.50;;;21.17;;
1206;SDS011;593;53.184;8.216;2022-10-31T13:25:59;21.63;;;18.53;;
1206;SDS011;593;53.184;8.216;2022-10-31T13:31:43;27.10;;;19.23;;
1206;SDS011;593;53.184;8.216;2022-10-31T13:34:14;28.50;;;20.10;;
1206;SDS011;593;53.184;8.216;2022-10-31T13:40:27;27.47;;;19.50;;
1206;SDS011;593;53.184;8.216;2022-10-31T13:42:37;24.10;;;18.23;;
1206;SDS011;593;53.184;8.216;2022-10-31T13:45:15;26.13;;;21.00;;
1206;SDS011;593;53.184;8.216;2022-10-31T13:47:42;26.13;;;20.30;;
1206;SDS011;593;53.184;8.216;2022-10-31T13:50:20;21.90;;;18.30;;
1206;SDS011;593;53.184;8.216;2022-10-31T13:52:48;28.83;;;20.90;;
1206;SDS011;593;53.184;8.216;2022-10-31T13:56:01;24.27;;;19.70;;
1206;SDS011;593;53.184;8.216;2022-10-31T14:03:37;24.90;;;19.10;;
1206;SDS011;593;53.184;8.216;2022-10-31T14:06:04;28.30;;;20.30;;
1206;SDS011;593;53.184;8.216;2022-10-31T14:08:34;30.23;;;20.10;;
1206;SDS011;593;53.184;8.216;2022-10-31T14:11:02;25.67;;;19.23;;
1206;SDS011;593;53.184;8.216;2022-10-31T14:13:35;28.63;;;20.60;;
1206;SDS011;593;53.184;8.216;2022-10-31T14:16:06;23.03;;;18.67;;
1206;SDS011;593;53.184;8.216;2022-10-31T14:18:46;25.23;;;18.53;;
1206;SDS011;593;53.184;8.216;2022-10-31T14:23:50;23.40;;;18.77;;
1206;SDS011;593;53.184;8.216;2022-10-31T14:28:53;24.60;;;17.53;;
1206;SDS011;593;53.184;8.216;2022-10-31T14:32:03;20.80;;;18.60;;
1206;SDS011;593;53.184;8.216;2022-10-31T14:36:51;23.27;;;17.97;;
1206;SDS011;593;53.184;8.216;2022-10-31T14:39:44;24.20;;;18.93;;
1206;SDS011;593;53.184;8.216;2022-10-31T14:45:33;24.07;;;17.80;;
1206;SDS011;593;53.184;8.216;2022-10-31T14:48:22;22.13;;;18.80;;
1206;SDS011;593;53.184;8.216;2022-10-31T14:50:58;26.97;;;20.23;;
1206;SDS011;593;53.184;8.216;2022-10-31T14:53:27;23.83;;;19.20;;
1206;SDS011;593;53.184;8.216;2022-10-31T14:55:56;24.80;;;19.90;;
1206;SDS011;593;53.184;8.216;2022-10-31T14:58:32;24.37;;;20.50;;
1206;SDS011;593;53.184;8.216;2022-10-31T15:01:01;24.80;;;19.07;;
1206;SDS011;593;53.184;8.216;2022-10-31T15:03:38;22.20;;;19.20;;
1206;SDS011;593;53.184;8.216;2022-10-31T15:06:14;27.70;;;21.00;;
1206;SDS011;593;53.184;8.216;2022-10-31T15:08:49;23.97;;;19.47;;
1206;SDS011;593;53.184;8.216;2022-10-31T15:11:17;27.27;;;20.83;;
1206;SDS011;593;53.184;8.216;2022-10-31T15:13:46;24.67;;;18.37;;
1206;SDS011;593;53.184;8.216;2022-10-31T15:16:19;23.07;;;19.23;;
1206;SDS011;593;53.184;8.216;2022-10-31T15:19:21;23.53;;;18.30;;
1206;SDS011;593;53.184;8.216;2022-10-31T15:21:45;27.50;;;20.57;;
1206;SDS011;593;53.184;8.216;2022-10-31T15:24:11;26.07;;;20.10;;
1206;SDS011;593;53.184;8.216;2022-10-31T15:26:43;25.80;;;18.90;;
1206;SDS011;593;53.184;8.216;2022-10-31T15:29:14;26.37;;;18.43;;
1206;SDS011;593;53.184;8.216;2022-10-31T15:34:19;26.40;;;18.90;;
1206;SDS011;593;53.184;8.216;2022-10-31T15:36:49;23.80;;;18.17;;
1206;SDS011;593;53.184;8.216;2022-10-31T15:39:17;27.70;;;19.57;;
1206;SDS011;593;53.184;8.216;2022-10-31T15:41:49;28.30;;;19.30;;
1206;SDS011;593;53.184;8.216;2022-10-31T15:46:51;23.90;;;18.47;;
1206;SDS011;593;53.184;8.216;2022-10-31T15:49:23;27.37;;;18.13;;
1206;SDS011;593;53.184;8.216;2022-10-31T15:52:09;26.20;;;18.73;;
1206;SDS011;593;53.184;8.216;2022-10-31T15:55:01;29.80;;;18.87;;
1206;SDS011;593;53.184;8.216;2022-10-31T15:57:29;25.33;;;19.73;;
1206;SDS011;593;53.184;8.216;2022-10-31T15:59:55;25.30;;;17.83;;
1206;SDS011;593;53.184;8.216;2022-10-31T16:02:21;26.23;;;18.10;;
1206;SDS011;593;53.184;8.216;2022-10-31T16:07:22;23.70;;;17.40;;
1206;SDS011;593;53.184;8.216;2022-10-31T16:09:49;22.60;;;16.77;;
1206;SDS011;593;53.184;8.216;2022-10-31T16:12:15;25.70;;;18.10;;
1206;SDS011;593;53.184;8.216;2022-10-31T16:14:41;24.67;;;17.43;;
1206;SDS011;593;53.184;8.216;2022-10-31T16:17:10;24.40;;;17.70;;
1206;SDS011;593;53.184;8.216;2022-10-31T16:19:43;23.97;;;17.33;;
1206;SDS011;593;53.184;8.216;2022-10-31T16:22:14;26.90;;;17.03;;
1206;SDS011;593;53.184;8.216;2022-10-31T16:24:48;22.87;;;17.20;;
1206;SDS011;593;53.184;8.216;2022-10-31T16:27:21;20.27;;;16.80;;
1206;SDS011;593;53.184;8.216;2022-10-31T16:29:50;26.77;;;17.27;;
1206;SDS011;593;53.184;8.216;2022-10-31T16:32:26;25.20;;;18.63;;
1206;SDS011;593;53.184;8.216;2022-10-31T16:37:36;25.60;;;17.57;;
1206;SDS011;593;53.184;8.216;2022-10-31T16:40:02;24.50;;;17.20;;
1206;SDS011;593;53.184;8.216;2022-10-31T16:42:28;24.67;;;18.53;;
1206;SDS011;593;53.184;8.216;2022-10-31T16:44:53;24.77;;;17.90;;
1206;SDS011;593;53.184;8.216;2022-10-31T16:47:19;26.50;;;17.17;;
1206;SDS011;593;53.184;8.216;2022-10-31T16:49:46;25.27;;;17.97;;
1206;SDS011;593;53.184;8.216;2022-10-31T16:52:13;25.40;;;18.73;;
1206;SDS011;593;53.184;8.216;2022-10-31T16:54:39;27.50;;;17.97;;
1206;SDS011;593;53.184;8.216;2022-10-31T16:57:04;22.97;;;17.20;;
1206;SDS011;593;53.184;8.216;2022-10-31T16:59:31;26.53;;;18.53;;
1206;SDS011;593;53.184;8.216;2022-10-31T17:02:00;25.60;;;17.90;;
1206;SDS011;593;53.184;8.216;2022-10-31T17:04:28;24.70;;;17.83;;
1206;SDS011;593;53.184;8.216;2022-10-31T17:06:53;27.27;;;18.30;;
1206;SDS011;593;53.184;8.216;2022-10-31T17:09:19;20.00;;;16.00;;
1206;SDS011;593;53.184;8.216;2022-10-31T17:11:45;27.20;;;19.10;;
1206;SDS011;593;53.184;8.216;2022-10-31T17:14:14;26.97;;;16.93;;
1206;SDS011;593;53.184;8.216;2022-10-31T17:16:40;25.73;;;17.90;;
1206;SDS011;593;53.184;8.216;2022-10-31T17:19:05;24.17;;;17.40;;
1206;SDS011;593;53.184;8.216;2022-10-31T17:21:32;22.43;;;17.70;;
1206;SDS011;593;53.184;8.216;2022-10-31T17:23:57;24.13;;;17.60;;
1206;SDS011;593;53.184;8.216;2022-10-31T17:26:23;26.00;;;17.90;;
1206;SDS011;593;53.184;8.216;2022-10-31T17:28:48;22.53;;;16.40;;
1206;SDS011;593;53.184;8.216;2022-10-31T17:31:19;24.30;;;16.93;;
1206;SDS011;593;53.184;8.216;2022-10-31T17:33:46;29.40;;;18.27;;
1206;SDS011;593;53.184;8.216;2022-10-31T17:36:11;24.67;;;16.07;;
1206;SDS011;593;53.184;8.216;2022-10-31T17:38:37;22.37;;;15.60;;
1206;SDS011;593;53.184;8.216;2022-10-31T17:41:05;21.67;;;15.40;;
1206;SDS011;593;53.184;8.216;2022-10-31T17:43:31;24.00;;;15.43;;
1206;SDS011;593;53.184;8.216;2022-10-31T17:46:00;22.03;;;15.87;;
1206;SDS011;593;53.184;8.216;2022-10-31T17:48:26;24.10;;;15.33;;
1206;SDS011;593;53.184;8.216;2022-10-31T17:50:52;22.63;;;14.80;;
1206;SDS011;593;53.184;8.216;2022-10-31T17:53:18;25.67;;;16.63;;
1206;SDS011;593;53.184;8.216;2022-10-31T17:55:43;25.50;;;14.87;;
1206;SDS011;593;53.184;8.216;2022-10-31T17:58:08;20.57;;;14.40;;
1206;SDS011;593;53.184;8.216;2022-10-31T18:00:36;23.07;;;16.87;;
1206;SDS011;593;53.184;8.216;2022-10-31T18:03:03;23.13;;;15.07;;
1206;SDS011;593;53.184;8.216;2022-10-31T18:05:28;23.97;;;15.10;;
1206;SDS011;593;53.184;8.216;2022-10-31T18:07:53;18.87;;;13.70;;
1206;SDS011;593;53.184;8.216;2022-10-31T18:10:19;21.03;;;13.27;;